createdAt,value
2018-04-12T00:06:52.403Z,998.23
2018-04-12T00:16:53.389Z,998.22
2018-04-12T00:26:52.422Z,998.22
2018-04-12T00:36:52.487Z,998.14
2018-04-12T00:46:52.444Z,998.02
2018-04-12T00:56:52.466Z,997.84
2018-04-12T01:06:52.479Z,997.9
2018-04-12T01:16:52.426Z,997.87
2018-04-12T01:26:52.396Z,997.83
2018-04-12T01:36:52.452Z,997.68
2018-04-12T01:46:52.433Z,997.5
2018-04-12T01:56:52.393Z,997.41
2018-04-12T02:06:52.443Z,997.36
2018-04-12T02:16:54.540Z,997.16
2018-04-12T02:26:52.480Z,997.05
2018-04-12T02:36:52.431Z,997.04
2018-04-12T02:46:52.389Z,996.97
2018-04-12T02:56:52.445Z,996.94
2018-04-12T03:06:52.435Z,996.88
2018-04-12T03:16:52.379Z,996.8
2018-04-12T03:26:52.463Z,996.59
2018-04-12T03:36:52.382Z,996.44
2018-04-12T03:46:52.472Z,996.43
2018-04-12T03:56:52.418Z,996.36
2018-04-12T04:06:52.370Z,996.22
2018-04-12T04:16:52.458Z,996.21
2018-04-12T04:26:52.417Z,996.25
2018-04-12T04:36:52.357Z,996.12
2018-04-12T04:46:52.424Z,996.1
2018-04-12T04:56:52.396Z,996.08
2018-04-12T05:06:52.440Z,996.05
2018-04-12T05:16:52.460Z,996.09
2018-04-12T05:26:52.375Z,996
2018-04-12T05:36:52.440Z,995.92
2018-04-12T05:46:52.411Z,996.03
2018-04-12T05:56:52.366Z,995.84
2018-04-12T06:06:52.570Z,995.85
2018-04-12T06:16:52.394Z,995.8
2018-04-12T06:26:52.451Z,995.76
2018-04-12T06:36:52.408Z,995.71
2018-04-12T06:46:52.374Z,995.71
2018-04-12T06:56:52.424Z,995.65
2018-04-12T07:06:52.382Z,995.62
2018-04-12T07:16:52.835Z,995.53
2018-04-12T07:26:52.420Z,995.8
2018-04-12T07:36:52.377Z,995.78
2018-04-12T07:46:52.444Z,995.74
2018-04-12T07:56:52.404Z,995.76
2018-04-12T08:06:52.362Z,995.72
2018-04-12T08:16:52.421Z,995.66
2018-04-12T08:26:52.575Z,995.55
2018-04-12T08:36:52.360Z,995.56
2018-04-12T08:46:52.433Z,995.51
2018-04-12T08:56:53.397Z,995.23
2018-04-12T09:06:52.434Z,995.02
2018-04-12T09:16:52.368Z,994.99
2018-04-12T09:26:52.322Z,994.91
2018-04-12T09:36:52.337Z,994.71
2018-04-12T09:46:52.340Z,994.49
2018-04-12T09:56:52.344Z,994.43
2018-04-12T10:06:52.332Z,994.41
2018-04-12T10:16:52.321Z,994.36
2018-04-12T10:26:52.332Z,994.06
2018-04-12T10:36:52.344Z,993.79
2018-04-12T10:46:52.369Z,993.73
2018-04-12T10:56:52.340Z,993.83
2018-04-12T11:06:52.318Z,993.8
2018-04-12T11:16:52.340Z,993.85
2018-04-12T11:26:52.345Z,994.01
2018-04-12T11:36:52.339Z,993.99
2018-04-12T11:46:52.348Z,993.9
2018-04-12T11:56:52.338Z,993.61
2018-04-12T12:06:52.387Z,993.71
2018-04-12T12:16:52.351Z,993.87
2018-04-12T12:26:52.353Z,993.76
2018-04-12T12:36:52.350Z,993.68
2018-04-12T12:46:52.430Z,993.51
2018-04-12T12:56:52.442Z,993.43
2018-04-12T13:06:52.447Z,993.3
2018-04-12T13:26:54.485Z,993.24
2018-04-12T13:36:57.335Z,993.32
2018-04-12T13:56:57.341Z,992.87
2018-04-12T14:36:52.346Z,993.15
2018-04-12T15:26:56.690Z,993.36
2018-04-12T15:46:52.387Z,993.21
2018-04-12T15:56:56.359Z,993.28
2018-04-12T16:06:52.474Z,993.09
2018-04-12T16:16:52.368Z,993.14
2018-04-12T16:26:52.472Z,993.2
2018-04-12T16:36:52.409Z,993.27
2018-04-12T16:46:52.542Z,993.33
2018-04-12T16:56:52.731Z,994.29
2018-04-12T17:06:52.536Z,994.49
2018-04-12T17:16:52.495Z,994.05
2018-04-12T17:26:53.277Z,994
2018-04-12T17:46:52.445Z,993.49
2018-04-12T18:06:52.488Z,993.76
2018-04-12T18:16:52.400Z,993.88
2018-04-12T18:26:52.460Z,993.85
2018-04-12T18:36:52.445Z,993.96
2018-04-12T18:46:53.205Z,994.22
2018-04-12T18:56:52.442Z,994.36
2018-04-12T19:06:52.523Z,994.5
2018-04-12T19:16:52.478Z,994.63
2018-04-12T19:26:52.532Z,994.6
2018-04-12T19:36:52.484Z,994.68
2018-04-12T19:46:52.566Z,994.76
2018-04-12T19:56:52.522Z,994.57
2018-04-12T20:06:52.595Z,994.49
2018-04-12T20:16:52.534Z,994.47
2018-04-12T20:26:52.604Z,994.41
2018-04-12T20:36:52.553Z,994.52
2018-04-12T20:46:52.635Z,994.57
2018-04-12T20:56:52.580Z,994.44
2018-04-12T21:06:52.803Z,994.49
2018-04-12T21:16:52.604Z,994.46
2018-04-12T21:26:52.663Z,994.49
2018-04-12T21:36:52.633Z,994.42
2018-04-12T21:46:52.717Z,994.63
2018-04-12T21:56:52.577Z,994.73
2018-04-12T22:06:52.662Z,994.6
2018-04-12T22:16:52.684Z,994.74
2018-04-12T22:26:52.652Z,994.75
2018-04-12T22:36:52.686Z,994.84
2018-04-12T22:46:52.652Z,994.88
2018-04-12T22:56:52.737Z,994.87
2018-04-12T23:06:52.709Z,994.88
2018-04-12T23:16:52.745Z,994.98
2018-04-12T23:26:52.695Z,995.07
2018-04-12T23:36:52.779Z,995.26
2018-04-12T23:46:52.712Z,995.35
2018-04-12T23:56:52.817Z,995.43
